Wetterdaten der Wetterstation 22117 Öjendorf (Hamburg)

Letzte Wetterlage 25.05.2015 21:15
Wetterdiagramm
Tabellarische Darstellung
Datum Temperatur Windchill Feuchte Luftdruck Windrichtung Windstärke Niederschlag
25.05.2015 21:25 12,3 °C 12,3 °C 66 % 1013,7 hPa 0,1 l/m²
25.05.2015 21:15 12,6 °C 12,6 °C 64 % 1013,6 hPa 0,1 l/m²
25.05.2015 21:05 12,8 °C 12,8 °C 62 % 1013,5 hPa 0 l/m²
25.05.2015 20:55 12,9 °C 12,9 °C 62 % 1013,4 hPa 0 l/m²
25.05.2015 20:45 13,0 °C 13,0 °C 62 % 1013,4 hPa 0 l/m²
25.05.2015 20:35 13,2 °C 13,2 °C 62 % 1013,4 hPa 0 l/m²
25.05.2015 20:25 13,3 °C 13,3 °C 59 % 1013,3 hPa 0 l/m²
25.05.2015 20:15 13,4 °C 13,4 °C 59 % 1013,3 hPa 0 l/m²
25.05.2015 20:05 13,5 °C 13,5 °C 58 % 1013,2 hPa 0 l/m²
25.05.2015 19:55 13,7 °C 13,7 °C 58 % 1013,2 hPa 0 l/m²
25.05.2015 19:45 13,8 °C 13,8 °C 58 % 1013,2 hPa 0 l/m²
25.05.2015 19:35 13,9 °C 13,9 °C 57 % 1013,1 hPa 0 l/m²
25.05.2015 19:25 14,2 °C 14,2 °C 55 % 1013,1 hPa 0 l/m²
25.05.2015 19:15 14,2 °C 14,2 °C 55 % 1013,1 hPa 0 l/m²
25.05.2015 19:05 14,2 °C 14,2 °C 54 % 1013,1 hPa 0 l/m²
25.05.2015 18:55 14,2 °C 14,2 °C 53 % 1013,0 hPa 0 l/m²
25.05.2015 18:45 14,4 °C 14,4 °C 50 % 1013,0 hPa 0 l/m²
25.05.2015 18:35 14,7 °C 14,7 °C 50 % 1012,9 hPa 0 l/m²
25.05.2015 18:25 14,9 °C 14,9 °C 50 % 1012,9 hPa 0 l/m²
25.05.2015 18:15 14,9 °C 14,9 °C 51 % 1012,9 hPa 0 l/m²
25.05.2015 18:05 14,9 °C 14,9 °C 50 % 1013,0 hPa 0 l/m²
25.05.2015 17:55 14,9 °C 14,9 °C 50 % 1013,0 hPa 0 l/m²
25.05.2015 17:45 14,6 °C 14,6 °C 51 % 1013,0 hPa 0 l/m²
25.05.2015 17:35 14,6 °C 14,6 °C 51 % 1013,0 hPa 0 l/m²
25.05.2015 17:25 14,5 °C 14,5 °C 55 % 1013,0 hPa 0 l/m²
Neue Wetterwarnung

Neue Niederschlagsmeldung
Neue Meldung
Regen Liveticker
    sehr starker Regen/Gewitter
    starker Regen/Gewitter
    mäßiger bis starker Regen
    mäßiger Regen
    leichter bis mäßiger Regen
    kein Regen